Portada
METAR-TAF:

METAR-TAF

Aeroports :

Tuggurt, Algèria

latitud: 33-07N, longitud: 006-08E, altitud: 85 m

METAR: manca

Hora: 10:35 (09:35 UTC)

Pronòstic

L'informe es va fer fa 1 hora i 35 minuts, a les 08:00 UTC
Pronòstic vàlid del 22 a les 09 UTC al 22 a les 18 UTC
Vent 8 kt del Oest/Sud-Oest
Visibilitat 10 km o més
sense núvols per sota de 1500 mi sense presència de cumulonimbus.
Evolucionant progressivament
l' 22 a les 10 UTC al 20 a les 14 UTC
Vent 10 kt del Nord/Nord-Oest

TAF: DAUK 220800Z 2209/2218 25008KT CAVOK BECMG 2210/2014 33010KT

Observacions i pronòstics meteorològics de més de 4000 aeroports (METAR i TAF).

Les estacions disponibles són els punts grocs i vermells al mapa.

Posi el ratolí al punt desitjat per veure el nom de l'estació.

Feu clic per veure les observacions i els pronòstics meteorològics.

Per canviar el mapa: feu clic els botons verds amb una creu de color negre per apropar; al botó verd amb un guió per allunyar la imatge; o en les fletxes verdes per a mapes adjacents.


METAR-TAF: